Aviation Digital Data Service (ADDS)

Output produced by METARs form (1027 UTC 19 January 2019)
found at http://www.aviationweather.gov/metar/data/
 
TAF TUPJ 182300Z 1900/1924 08010KT 9999 SCT018